sensor_id;sensor_type;location;lat;lon;timestamp;temperature;humidity
22065;DHT22;11197;53.110;8.468;2022-12-01T00:00:40;5.90;99.90
22065;DHT22;11197;53.110;8.468;2022-12-01T00:03:07;5.90;99.90
22065;DHT22;11197;53.110;8.468;2022-12-01T00:05:34;5.90;99.90
22065;DHT22;11197;53.110;8.468;2022-12-01T00:08:00;5.90;99.90
22065;DHT22;11197;53.110;8.468;2022-12-01T00:10:27;5.90;99.90
22065;DHT22;11197;53.110;8.468;2022-12-01T00:12:55;5.90;99.90
22065;DHT22;11197;53.110;8.468;2022-12-01T00:15:24;5.90;99.90
22065;DHT22;11197;53.110;8.468;2022-12-01T00:17:50;5.90;99.90
22065;DHT22;11197;53.110;8.468;2022-12-01T00:20:17;5.90;99.90
22065;DHT22;11197;53.110;8.468;2022-12-01T00:22:44;5.90;99.90
22065;DHT22;11197;53.110;8.468;2022-12-01T00:25:12;5.90;99.90
22065;DHT22;11197;53.110;8.468;2022-12-01T00:27:38;5.90;99.90
22065;DHT22;11197;53.110;8.468;2022-12-01T00:30:06;5.90;99.90
22065;DHT22;11197;53.110;8.468;2022-12-01T00:32:33;5.80;99.90
22065;DHT22;11197;53.110;8.468;2022-12-01T00:34:59;5.80;99.90
22065;DHT22;11197;53.110;8.468;2022-12-01T00:37:29;5.80;99.90
22065;DHT22;11197;53.110;8.468;2022-12-01T00:39:56;5.80;99.90
22065;DHT22;11197;53.110;8.468;2022-12-01T00:42:22;5.80;99.90
22065;DHT22;11197;53.110;8.468;2022-12-01T00:44:48;5.80;99.90
22065;DHT22;11197;53.110;8.468;2022-12-01T00:47:14;5.80;99.90
22065;DHT22;11197;53.110;8.468;2022-12-01T00:49:41;5.80;99.90
22065;DHT22;11197;53.110;8.468;2022-12-01T00:52:08;5.80;99.90
22065;DHT22;11197;53.110;8.468;2022-12-01T00:54:37;5.80;99.90
22065;DHT22;11197;53.110;8.468;2022-12-01T00:57:03;5.80;99.90
22065;DHT22;11197;53.110;8.468;2022-12-01T00:59:29;5.80;99.90
22065;DHT22;11197;53.110;8.468;2022-12-01T01:01:55;5.80;99.90
22065;DHT22;11197;53.110;8.468;2022-12-01T01:04:21;5.80;99.90
22065;DHT22;11197;53.110;8.468;2022-12-01T01:06:47;5.80;99.90
22065;DHT22;11197;53.110;8.468;2022-12-01T01:09:14;5.80;99.90
22065;DHT22;11197;53.110;8.468;2022-12-01T01:11:41;5.80;99.90
22065;DHT22;11197;53.110;8.468;2022-12-01T01:14:08;5.80;99.90
22065;DHT22;11197;53.110;8.468;2022-12-01T01:16:34;5.80;99.90
22065;DHT22;11197;53.110;8.468;2022-12-01T01:19:00;5.80;99.90
22065;DHT22;11197;53.110;8.468;2022-12-01T01:21:27;5.80;99.90
22065;DHT22;11197;53.110;8.468;2022-12-01T01:23:54;5.80;99.90
22065;DHT22;11197;53.110;8.468;2022-12-01T01:26:24;5.80;99.90
22065;DHT22;11197;53.110;8.468;2022-12-01T01:28:51;5.80;99.90
22065;DHT22;11197;53.110;8.468;2022-12-01T01:31:20;5.80;99.90
22065;DHT22;11197;53.110;8.468;2022-12-01T01:33:47;5.80;99.90
22065;DHT22;11197;53.110;8.468;2022-12-01T01:36:14;5.80;99.90
22065;DHT22;11197;53.110;8.468;2022-12-01T01:38:40;5.80;99.90
22065;DHT22;11197;53.110;8.468;2022-12-01T01:41:07;5.80;99.90
22065;DHT22;11197;53.110;8.468;2022-12-01T01:46:06;5.80;99.90
22065;DHT22;11197;53.110;8.468;2022-12-01T01:48:33;5.80;99.90
22065;DHT22;11197;53.110;8.468;2022-12-01T01:51:01;5.80;99.90
22065;DHT22;11197;53.110;8.468;2022-12-01T01:53:27;5.80;99.90
22065;DHT22;11197;53.110;8.468;2022-12-01T01:55:54;5.80;99.90
22065;DHT22;11197;53.110;8.468;2022-12-01T01:58:20;5.80;99.90
22065;DHT22;11197;53.110;8.468;2022-12-01T02:00:46;5.80;99.90
22065;DHT22;11197;53.110;8.468;2022-12-01T02:03:15;5.80;99.90
22065;DHT22;11197;53.110;8.468;2022-12-01T02:05:41;5.80;99.90
22065;DHT22;11197;53.110;8.468;2022-12-01T02:08:10;5.70;99.90
22065;DHT22;11197;53.110;8.468;2022-12-01T02:16:11;5.70;99.90
22065;DHT22;11197;53.110;8.468;2022-12-01T02:21:39;5.70;99.90
22065;DHT22;11197;53.110;8.468;2022-12-01T02:27:13;5.70;99.90
22065;DHT22;11197;53.110;8.468;2022-12-01T02:30:06;5.70;99.90
22065;DHT22;11197;53.110;8.468;2022-12-01T02:38:23;5.60;99.90
22065;DHT22;11197;53.110;8.468;2022-12-01T02:43:45;5.60;99.90
22065;DHT22;11197;53.110;8.468;2022-12-01T02:46:47;5.60;99.90
22065;DHT22;11197;53.110;8.468;2022-12-01T02:49:25;5.70;99.90
22065;DHT22;11197;53.110;8.468;2022-12-01T02:51:54;5.70;99.90
22065;DHT22;11197;53.110;8.468;2022-12-01T02:54:21;5.60;99.90
22065;DHT22;11197;53.110;8.468;2022-12-01T02:56:51;5.60;99.90
22065;DHT22;11197;53.110;8.468;2022-12-01T02:59:18;5.60;99.90
22065;DHT22;11197;53.110;8.468;2022-12-01T03:15:07;5.60;99.90
22065;DHT22;11197;53.110;8.468;2022-12-01T03:20:36;5.60;99.90
22065;DHT22;11197;53.110;8.468;2022-12-01T03:23:09;5.70;99.90
22065;DHT22;11197;53.110;8.468;2022-12-01T03:25:40;5.70;99.90
22065;DHT22;11197;53.110;8.468;2022-12-01T03:28:07;5.70;99.90
22065;DHT22;11197;53.110;8.468;2022-12-01T03:30:36;5.70;99.90
22065;DHT22;11197;53.110;8.468;2022-12-01T03:33:07;5.70;99.90
22065;DHT22;11197;53.110;8.468;2022-12-01T03:35:43;5.70;99.90
22065;DHT22;11197;53.110;8.468;2022-12-01T03:38:23;5.70;99.90
22065;DHT22;11197;53.110;8.468;2022-12-01T03:40:52;5.70;99.90
22065;DHT22;11197;53.110;8.468;2022-12-01T03:43:21;5.70;99.90
22065;DHT22;11197;53.110;8.468;2022-12-01T03:45:58;5.70;99.90
22065;DHT22;11197;53.110;8.468;2022-12-01T03:48:25;5.70;99.90
22065;DHT22;11197;53.110;8.468;2022-12-01T03:51:19;5.70;99.90
22065;DHT22;11197;53.110;8.468;2022-12-01T03:54:16;5.70;99.90
22065;DHT22;11197;53.110;8.468;2022-12-01T03:56:50;5.70;99.90
22065;DHT22;11197;53.110;8.468;2022-12-01T03:59:19;5.70;99.90
22065;DHT22;11197;53.110;8.468;2022-12-01T04:01:46;5.70;99.90
22065;DHT22;11197;53.110;8.468;2022-12-01T04:04:13;5.70;99.90
22065;DHT22;11197;53.110;8.468;2022-12-01T04:06:42;5.70;99.90
22065;DHT22;11197;53.110;8.468;2022-12-01T04:09:09;5.70;99.90
22065;DHT22;11197;53.110;8.468;2022-12-01T04:11:35;5.70;99.90
22065;DHT22;11197;53.110;8.468;2022-12-01T04:14:19;5.60;99.90
22065;DHT22;11197;53.110;8.468;2022-12-01T04:16:45;5.70;99.90
22065;DHT22;11197;53.110;8.468;2022-12-01T04:19:11;5.70;99.90
22065;DHT22;11197;53.110;8.468;2022-12-01T04:21:37;5.60;99.90
22065;DHT22;11197;53.110;8.468;2022-12-01T04:24:11;5.60;99.90
22065;DHT22;11197;53.110;8.468;2022-12-01T04:26:37;5.60;99.90
22065;DHT22;11197;53.110;8.468;2022-12-01T04:29:06;5.60;99.90
22065;DHT22;11197;53.110;8.468;2022-12-01T04:31:32;5.60;99.90
22065;DHT22;11197;53.110;8.468;2022-12-01T04:33:58;5.60;99.90
22065;DHT22;11197;53.110;8.468;2022-12-01T04:36:25;5.60;99.90
22065;DHT22;11197;53.110;8.468;2022-12-01T04:38:51;5.60;99.90
22065;DHT22;11197;53.110;8.468;2022-12-01T04:41:17;5.60;99.90
22065;DHT22;11197;53.110;8.468;2022-12-01T04:43:43;5.60;99.90
22065;DHT22;11197;53.110;8.468;2022-12-01T04:46:09;5.60;99.90
22065;DHT22;11197;53.110;8.468;2022-12-01T04:48:37;5.60;99.90
22065;DHT22;11197;53.110;8.468;2022-12-01T04:51:06;5.60;99.90
22065;DHT22;11197;53.110;8.468;2022-12-01T04:53:33;5.60;99.90
22065;DHT22;11197;53.110;8.468;2022-12-01T04:56:00;5.60;99.90
22065;DHT22;11197;53.110;8.468;2022-12-01T04:58:30;5.60;99.90
22065;DHT22;11197;53.110;8.468;2022-12-01T05:01:05;5.60;99.90
22065;DHT22;11197;53.110;8.468;2022-12-01T05:03:34;5.60;99.90
22065;DHT22;11197;53.110;8.468;2022-12-01T05:06:09;5.60;99.90
22065;DHT22;11197;53.110;8.468;2022-12-01T05:08:36;5.60;99.90
22065;DHT22;11197;53.110;8.468;2022-12-01T05:11:03;5.60;99.90
22065;DHT22;11197;53.110;8.468;2022-12-01T05:13:32;5.60;99.90
22065;DHT22;11197;53.110;8.468;2022-12-01T05:16:06;5.60;99.90
22065;DHT22;11197;53.110;8.468;2022-12-01T05:18:33;5.60;99.90
22065;DHT22;11197;53.110;8.468;2022-12-01T05:21:00;5.60;99.90
22065;DHT22;11197;53.110;8.468;2022-12-01T05:23:30;5.60;99.90
22065;DHT22;11197;53.110;8.468;2022-12-01T05:25:56;5.60;99.90
22065;DHT22;11197;53.110;8.468;2022-12-01T05:28:23;5.60;99.90
22065;DHT22;11197;53.110;8.468;2022-12-01T05:30:51;5.60;99.90
22065;DHT22;11197;53.110;8.468;2022-12-01T05:33:17;5.60;99.90
22065;DHT22;11197;53.110;8.468;2022-12-01T05:35:43;5.60;99.90
22065;DHT22;11197;53.110;8.468;2022-12-01T05:38:09;5.60;99.90
22065;DHT22;11197;53.110;8.468;2022-12-01T05:40:36;5.60;99.90
22065;DHT22;11197;53.110;8.468;2022-12-01T05:43:02;5.60;99.90
22065;DHT22;11197;53.110;8.468;2022-12-01T05:45:28;5.60;99.90
22065;DHT22;11197;53.110;8.468;2022-12-01T05:47:56;5.60;99.90
22065;DHT22;11197;53.110;8.468;2022-12-01T05:50:23;5.60;99.90
22065;DHT22;11197;53.110;8.468;2022-12-01T05:52:49;5.60;99.90
22065;DHT22;11197;53.110;8.468;2022-12-01T05:55:15;5.60;99.90
22065;DHT22;11197;53.110;8.468;2022-12-01T05:57:41;5.60;99.90
22065;DHT22;11197;53.110;8.468;2022-12-01T06:00:08;5.60;99.90
22065;DHT22;11197;53.110;8.468;2022-12-01T06:02:37;5.60;99.90
22065;DHT22;11197;53.110;8.468;2022-12-01T06:05:04;5.60;99.90
22065;DHT22;11197;53.110;8.468;2022-12-01T06:07:31;5.70;99.90
22065;DHT22;11197;53.110;8.468;2022-12-01T06:09:59;5.70;99.90
22065;DHT22;11197;53.110;8.468;2022-12-01T06:12:26;5.60;99.90
22065;DHT22;11197;53.110;8.468;2022-12-01T06:14:52;5.70;99.90
22065;DHT22;11197;53.110;8.468;2022-12-01T06:17:18;5.70;99.90
22065;DHT22;11197;53.110;8.468;2022-12-01T06:19:47;5.70;99.90
22065;DHT22;11197;53.110;8.468;2022-12-01T06:22:14;5.70;99.90
22065;DHT22;11197;53.110;8.468;2022-12-01T06:24:40;5.70;99.90
22065;DHT22;11197;53.110;8.468;2022-12-01T06:27:05;5.70;99.90
22065;DHT22;11197;53.110;8.468;2022-12-01T06:29:31;5.70;99.90
22065;DHT22;11197;53.110;8.468;2022-12-01T06:31:57;5.70;99.90
22065;DHT22;11197;53.110;8.468;2022-12-01T06:34:23;5.70;99.90
22065;DHT22;11197;53.110;8.468;2022-12-01T06:36:49;5.70;99.90
22065;DHT22;11197;53.110;8.468;2022-12-01T06:39:16;5.60;99.90
22065;DHT22;11197;53.110;8.468;2022-12-01T06:41:42;5.70;99.90
22065;DHT22;11197;53.110;8.468;2022-12-01T06:44:09;5.70;99.90
22065;DHT22;11197;53.110;8.468;2022-12-01T06:46:36;5.70;99.90
22065;DHT22;11197;53.110;8.468;2022-12-01T06:49:02;5.70;99.90
22065;DHT22;11197;53.110;8.468;2022-12-01T06:51:29;5.60;99.90
22065;DHT22;11197;53.110;8.468;2022-12-01T06:53:56;5.60;99.90
22065;DHT22;11197;53.110;8.468;2022-12-01T06:56:22;5.60;99.90
22065;DHT22;11197;53.110;8.468;2022-12-01T06:58:51;5.60;99.90
22065;DHT22;11197;53.110;8.468;2022-12-01T07:01:18;5.70;99.90
22065;DHT22;11197;53.110;8.468;2022-12-01T07:03:50;5.60;99.90
22065;DHT22;11197;53.110;8.468;2022-12-01T07:06:17;5.60;99.90
22065;DHT22;11197;53.110;8.468;2022-12-01T07:08:43;5.60;99.90
22065;DHT22;11197;53.110;8.468;2022-12-01T07:11:12;5.60;99.90
22065;DHT22;11197;53.110;8.468;2022-12-01T07:13:39;5.60;99.90
22065;DHT22;11197;53.110;8.468;2022-12-01T07:16:06;5.60;99.90
22065;DHT22;11197;53.110;8.468;2022-12-01T07:18:33;5.60;99.90
22065;DHT22;11197;53.110;8.468;2022-12-01T07:21:01;5.60;99.90
22065;DHT22;11197;53.110;8.468;2022-12-01T07:23:27;5.60;99.90
22065;DHT22;11197;53.110;8.468;2022-12-01T07:28:30;5.60;99.90
22065;DHT22;11197;53.110;8.468;2022-12-01T07:31:18;5.60;99.90
22065;DHT22;11197;53.110;8.468;2022-12-01T07:33:44;5.60;99.90
22065;DHT22;11197;53.110;8.468;2022-12-01T07:36:11;5.60;99.90
22065;DHT22;11197;53.110;8.468;2022-12-01T07:38:37;5.60;99.90
22065;DHT22;11197;53.110;8.468;2022-12-01T07:41:06;5.60;99.90
22065;DHT22;11197;53.110;8.468;2022-12-01T07:43:33;5.60;99.90
22065;DHT22;11197;53.110;8.468;2022-12-01T07:46:04;5.60;99.90
22065;DHT22;11197;53.110;8.468;2022-12-01T07:48:31;5.70;99.90
22065;DHT22;11197;53.110;8.468;2022-12-01T07:50:57;5.60;99.90
22065;DHT22;11197;53.110;8.468;2022-12-01T07:53:23;5.60;99.90
22065;DHT22;11197;53.110;8.468;2022-12-01T07:55:49;5.60;99.90
22065;DHT22;11197;53.110;8.468;2022-12-01T07:58:16;5.60;99.90
22065;DHT22;11197;53.110;8.468;2022-12-01T08:00:42;5.60;99.90
22065;DHT22;11197;53.110;8.468;2022-12-01T08:03:08;5.60;99.90
22065;DHT22;11197;53.110;8.468;2022-12-01T08:05:34;5.60;99.90
22065;DHT22;11197;53.110;8.468;2022-12-01T08:08:00;5.60;99.90
22065;DHT22;11197;53.110;8.468;2022-12-01T08:10:26;5.60;99.90
22065;DHT22;11197;53.110;8.468;2022-12-01T08:12:52;5.60;99.90
22065;DHT22;11197;53.110;8.468;2022-12-01T08:15:19;5.60;99.90
22065;DHT22;11197;53.110;8.468;2022-12-01T08:17:45;5.60;99.90
22065;DHT22;11197;53.110;8.468;2022-12-01T08:20:15;5.60;99.90
22065;DHT22;11197;53.110;8.468;2022-12-01T08:22:46;5.60;99.90
22065;DHT22;11197;53.110;8.468;2022-12-01T08:25:12;5.60;99.90
22065;DHT22;11197;53.110;8.468;2022-12-01T08:27:38;5.50;99.90
22065;DHT22;11197;53.110;8.468;2022-12-01T08:30:05;5.50;99.90
22065;DHT22;11197;53.110;8.468;2022-12-01T08:32:31;5.50;99.90
22065;DHT22;11197;53.110;8.468;2022-12-01T08:34:57;5.80;99.90
22065;DHT22;11197;53.110;8.468;2022-12-01T08:37:23;6.90;99.90
22065;DHT22;11197;53.110;8.468;2022-12-01T08:39:48;7.70;99.90
22065;DHT22;11197;53.110;8.468;2022-12-01T08:42:14;7.90;99.90
22065;DHT22;11197;53.110;8.468;2022-12-01T08:44:40;7.90;99.90
22065;DHT22;11197;53.110;8.468;2022-12-01T08:47:06;7.70;99.90
22065;DHT22;11197;53.110;8.468;2022-12-01T08:49:32;7.40;99.90
22065;DHT22;11197;53.110;8.468;2022-12-01T08:51:58;7.20;99.90
22065;DHT22;11197;53.110;8.468;2022-12-01T08:54:24;7.00;99.90
22065;DHT22;11197;53.110;8.468;2022-12-01T08:56:50;6.80;99.90
22065;DHT22;11197;53.110;8.468;2022-12-01T08:59:19;6.70;99.90
22065;DHT22;11197;53.110;8.468;2022-12-01T09:01:45;6.50;99.90
22065;DHT22;11197;53.110;8.468;2022-12-01T09:04:25;6.40;99.90
22065;DHT22;11197;53.110;8.468;2022-12-01T09:06:53;6.30;99.90
22065;DHT22;11197;53.110;8.468;2022-12-01T09:09:26;6.20;99.90
22065;DHT22;11197;53.110;8.468;2022-12-01T09:11:53;6.10;99.90
22065;DHT22;11197;53.110;8.468;2022-12-01T09:14:21;6.00;99.90
22065;DHT22;11197;53.110;8.468;2022-12-01T09:16:48;6.00;99.90
22065;DHT22;11197;53.110;8.468;2022-12-01T09:19:18;5.90;99.90
22065;DHT22;11197;53.110;8.468;2022-12-01T09:21:44;5.90;99.90
22065;DHT22;11197;53.110;8.468;2022-12-01T09:24:14;5.90;99.90
22065;DHT22;11197;53.110;8.468;2022-12-01T09:26:42;5.90;99.90
22065;DHT22;11197;53.110;8.468;2022-12-01T09:29:11;5.80;99.90
22065;DHT22;11197;53.110;8.468;2022-12-01T09:31:39;5.80;99.90
22065;DHT22;11197;53.110;8.468;2022-12-01T09:34:07;5.80;99.90
22065;DHT22;11197;53.110;8.468;2022-12-01T09:36:34;5.80;99.90
22065;DHT22;11197;53.110;8.468;2022-12-01T09:39:01;5.70;99.90
22065;DHT22;11197;53.110;8.468;2022-12-01T09:46:37;5.70;99.90
22065;DHT22;11197;53.110;8.468;2022-12-01T09:49:22;5.60;99.90
22065;DHT22;11197;53.110;8.468;2022-12-01T09:51:51;5.70;99.90
22065;DHT22;11197;53.110;8.468;2022-12-01T09:54:17;5.70;99.90
22065;DHT22;11197;53.110;8.468;2022-12-01T09:56:48;5.60;99.90
22065;DHT22;11197;53.110;8.468;2022-12-01T09:59:21;5.60;99.90
22065;DHT22;11197;53.110;8.468;2022-12-01T10:01:54;5.70;99.90
22065;DHT22;11197;53.110;8.468;2022-12-01T10:04:33;5.60;99.90
22065;DHT22;11197;53.110;8.468;2022-12-01T10:07:12;5.60;99.90
22065;DHT22;11197;53.110;8.468;2022-12-01T10:09:55;5.60;99.90
22065;DHT22;11197;53.110;8.468;2022-12-01T10:12:23;5.60;99.90
22065;DHT22;11197;53.110;8.468;2022-12-01T10:15:13;5.60;99.90
22065;DHT22;11197;53.110;8.468;2022-12-01T10:20:20;5.60;99.90
22065;DHT22;11197;53.110;8.468;2022-12-01T10:25:23;5.60;99.90
22065;DHT22;11197;53.110;8.468;2022-12-01T10:30:21;5.60;99.90
22065;DHT22;11197;53.110;8.468;2022-12-01T10:35:35;5.60;99.90
22065;DHT22;11197;53.110;8.468;2022-12-01T10:38:06;5.60;99.90
22065;DHT22;11197;53.110;8.468;2022-12-01T10:40:41;5.70;99.90
22065;DHT22;11197;53.110;8.468;2022-12-01T10:43:08;5.70;99.90
22065;DHT22;11197;53.110;8.468;2022-12-01T10:45:39;5.70;99.90
22065;DHT22;11197;53.110;8.468;2022-12-01T10:50:35;5.60;99.90
22065;DHT22;11197;53.110;8.468;2022-12-01T10:53:02;5.60;99.90
22065;DHT22;11197;53.110;8.468;2022-12-01T10:55:32;5.70;99.90
22065;DHT22;11197;53.110;8.468;2022-12-01T10:58:01;5.70;99.90
22065;DHT22;11197;53.110;8.468;2022-12-01T11:00:36;5.70;99.90
22065;DHT22;11197;53.110;8.468;2022-12-01T11:03:03;5.70;99.90
22065;DHT22;11197;53.110;8.468;2022-12-01T11:05:34;5.70;99.90
22065;DHT22;11197;53.110;8.468;2022-12-01T11:08:02;5.70;99.90
22065;DHT22;11197;53.110;8.468;2022-12-01T11:10:30;5.70;99.90
22065;DHT22;11197;53.110;8.468;2022-12-01T11:15:53;5.70;99.90
22065;DHT22;11197;53.110;8.468;2022-12-01T11:18:37;5.70;99.90
22065;DHT22;11197;53.110;8.468;2022-12-01T11:21:13;5.70;99.90
22065;DHT22;11197;53.110;8.468;2022-12-01T11:23:47;5.70;99.90
22065;DHT22;11197;53.110;8.468;2022-12-01T11:26:19;5.80;99.90
22065;DHT22;11197;53.110;8.468;2022-12-01T11:31:38;5.90;99.90
22065;DHT22;11197;53.110;8.468;2022-12-01T11:34:17;5.90;99.90
22065;DHT22;11197;53.110;8.468;2022-12-01T11:36:47;6.00;99.90
22065;DHT22;11197;53.110;8.468;2022-12-01T11:39:40;6.00;99.90
22065;DHT22;11197;53.110;8.468;2022-12-01T11:44:46;6.10;99.90
22065;DHT22;11197;53.110;8.468;2022-12-01T11:47:24;6.10;99.90
22065;DHT22;11197;53.110;8.468;2022-12-01T11:49:59;6.10;99.90
22065;DHT22;11197;53.110;8.468;2022-12-01T11:52:30;6.10;99.90
22065;DHT22;11197;53.110;8.468;2022-12-01T11:55:02;6.20;99.90
22065;DHT22;11197;53.110;8.468;2022-12-01T11:57:39;6.20;99.90
22065;DHT22;11197;53.110;8.468;2022-12-01T12:00:17;6.20;99.90
22065;DHT22;11197;53.110;8.468;2022-12-01T12:08:18;6.30;99.90
22065;DHT22;11197;53.110;8.468;2022-12-01T12:32:26;6.20;99.90
22065;DHT22;11197;53.110;8.468;2022-12-01T12:51:57;6.00;99.90
22065;DHT22;11197;53.110;8.468;2022-12-01T12:54:39;6.00;99.90
22065;DHT22;11197;53.110;8.468;2022-12-01T13:00:12;5.90;99.90
22065;DHT22;11197;53.110;8.468;2022-12-01T13:03:03;5.90;99.90
22065;DHT22;11197;53.110;8.468;2022-12-01T13:05:44;5.90;99.90
22065;DHT22;11197;53.110;8.468;2022-12-01T13:08:24;5.90;99.90
22065;DHT22;11197;53.110;8.468;2022-12-01T13:14:06;5.90;99.90
22065;DHT22;11197;53.110;8.468;2022-12-01T13:16:39;5.90;99.90
22065;DHT22;11197;53.110;8.468;2022-12-01T13:19:24;5.90;99.90
22065;DHT22;11197;53.110;8.468;2022-12-01T13:21:51;5.80;99.90
22065;DHT22;11197;53.110;8.468;2022-12-01T13:24:20;5.90;99.90
22065;DHT22;11197;53.110;8.468;2022-12-01T13:29:37;5.80;99.90
22065;DHT22;11197;53.110;8.468;2022-12-01T13:32:05;5.90;99.90
22065;DHT22;11197;53.110;8.468;2022-12-01T13:34:38;5.80;99.90
22065;DHT22;11197;53.110;8.468;2022-12-01T13:37:07;5.80;99.90
22065;DHT22;11197;53.110;8.468;2022-12-01T13:39:36;5.80;99.90
22065;DHT22;11197;53.110;8.468;2022-12-01T13:42:18;5.80;99.90
22065;DHT22;11197;53.110;8.468;2022-12-01T13:44:51;5.80;99.90
22065;DHT22;11197;53.110;8.468;2022-12-01T13:49:46;5.70;99.90
22065;DHT22;11197;53.110;8.468;2022-12-01T13:57:28;5.80;99.90
22065;DHT22;11197;53.110;8.468;2022-12-01T14:02:28;5.80;99.90
22065;DHT22;11197;53.110;8.468;2022-12-01T14:04:54;5.80;99.90
22065;DHT22;11197;53.110;8.468;2022-12-01T14:07:35;5.80;99.90
22065;DHT22;11197;53.110;8.468;2022-12-01T14:10:22;5.80;99.90
22065;DHT22;11197;53.110;8.468;2022-12-01T14:12:49;5.80;99.90
22065;DHT22;11197;53.110;8.468;2022-12-01T14:15:39;5.80;99.90
22065;DHT22;11197;53.110;8.468;2022-12-01T14:18:32;5.70;99.90
22065;DHT22;11197;53.110;8.468;2022-12-01T14:21:00;5.70;99.90
22065;DHT22;11197;53.110;8.468;2022-12-01T14:23:31;5.70;99.90
22065;DHT22;11197;53.110;8.468;2022-12-01T14:26:09;5.70;99.90
22065;DHT22;11197;53.110;8.468;2022-12-01T14:31:23;5.70;99.90
22065;DHT22;11197;53.110;8.468;2022-12-01T14:44:56;5.70;99.90
22065;DHT22;11197;53.110;8.468;2022-12-01T14:47:28;5.70;99.90
22065;DHT22;11197;53.110;8.468;2022-12-01T14:50:21;5.70;99.90
22065;DHT22;11197;53.110;8.468;2022-12-01T14:52:52;5.70;99.90
22065;DHT22;11197;53.110;8.468;2022-12-01T14:55:26;5.70;99.90
22065;DHT22;11197;53.110;8.468;2022-12-01T14:58:06;5.70;99.90
22065;DHT22;11197;53.110;8.468;2022-12-01T15:00:36;5.60;99.90
22065;DHT22;11197;53.110;8.468;2022-12-01T15:03:07;5.60;99.90
22065;DHT22;11197;53.110;8.468;2022-12-01T15:05:39;5.60;99.90
22065;DHT22;11197;53.110;8.468;2022-12-01T15:08:15;5.60;99.90
22065;DHT22;11197;53.110;8.468;2022-12-01T15:10:52;5.60;99.90
22065;DHT22;11197;53.110;8.468;2022-12-01T15:13:43;5.60;99.90
22065;DHT22;11197;53.110;8.468;2022-12-01T15:16:16;5.60;99.90
22065;DHT22;11197;53.110;8.468;2022-12-01T15:18:44;5.60;99.90
22065;DHT22;11197;53.110;8.468;2022-12-01T15:21:17;5.50;99.90
22065;DHT22;11197;53.110;8.468;2022-12-01T15:24:04;5.50;99.90
22065;DHT22;11197;53.110;8.468;2022-12-01T15:26:36;5.50;99.90
22065;DHT22;11197;53.110;8.468;2022-12-01T15:29:15;5.50;99.90
22065;DHT22;11197;53.110;8.468;2022-12-01T15:31:47;5.50;99.90
22065;DHT22;11197;53.110;8.468;2022-12-01T15:34:28;5.50;99.90
22065;DHT22;11197;53.110;8.468;2022-12-01T15:36:56;5.50;99.90
22065;DHT22;11197;53.110;8.468;2022-12-01T15:39:36;5.50;99.90
22065;DHT22;11197;53.110;8.468;2022-12-01T15:42:04;5.50;99.90
22065;DHT22;11197;53.110;8.468;2022-12-01T15:44:35;5.50;99.90
22065;DHT22;11197;53.110;8.468;2022-12-01T15:49:55;5.50;99.90
22065;DHT22;11197;53.110;8.468;2022-12-01T15:52:22;5.50;99.90
22065;DHT22;11197;53.110;8.468;2022-12-01T15:54:48;5.50;99.90
22065;DHT22;11197;53.110;8.468;2022-12-01T15:57:17;5.50;99.90
22065;DHT22;11197;53.110;8.468;2022-12-01T15:59:45;5.50;99.90
22065;DHT22;11197;53.110;8.468;2022-12-01T16:04:45;5.40;99.90
22065;DHT22;11197;53.110;8.468;2022-12-01T16:07:11;5.50;99.90
22065;DHT22;11197;53.110;8.468;2022-12-01T16:10:04;5.50;99.90
22065;DHT22;11197;53.110;8.468;2022-12-01T16:12:33;5.40;99.90
22065;DHT22;11197;53.110;8.468;2022-12-01T16:15:15;5.40;99.90
22065;DHT22;11197;53.110;8.468;2022-12-01T16:17:51;5.40;99.90
22065;DHT22;11197;53.110;8.468;2022-12-01T16:20:37;5.40;99.90
22065;DHT22;11197;53.110;8.468;2022-12-01T16:23:10;5.40;99.90
22065;DHT22;11197;53.110;8.468;2022-12-01T16:25:42;5.40;99.90
22065;DHT22;11197;53.110;8.468;2022-12-01T16:28:20;5.40;99.90
22065;DHT22;11197;53.110;8.468;2022-12-01T16:30:47;5.40;99.90
22065;DHT22;11197;53.110;8.468;2022-12-01T16:33:20;5.40;99.90
22065;DHT22;11197;53.110;8.468;2022-12-01T16:35:47;5.40;99.90
22065;DHT22;11197;53.110;8.468;2022-12-01T16:38:19;5.40;99.90
22065;DHT22;11197;53.110;8.468;2022-12-01T16:40:51;5.40;99.90
22065;DHT22;11197;53.110;8.468;2022-12-01T16:43:20;5.40;99.90
22065;DHT22;11197;53.110;8.468;2022-12-01T16:45:47;5.40;99.90
22065;DHT22;11197;53.110;8.468;2022-12-01T16:48:18;5.40;99.90
22065;DHT22;11197;53.110;8.468;2022-12-01T16:50:48;5.40;99.90
22065;DHT22;11197;53.110;8.468;2022-12-01T16:53:16;5.40;99.90
22065;DHT22;11197;53.110;8.468;2022-12-01T16:58:17;5.40;99.90
22065;DHT22;11197;53.110;8.468;2022-12-01T17:00:46;5.40;99.90
22065;DHT22;11197;53.110;8.468;2022-12-01T17:03:20;5.40;99.90
22065;DHT22;11197;53.110;8.468;2022-12-01T17:05:46;5.30;99.90
22065;DHT22;11197;53.110;8.468;2022-12-01T17:08:14;5.30;99.90
22065;DHT22;11197;53.110;8.468;2022-12-01T17:10:42;5.30;99.90
22065;DHT22;11197;53.110;8.468;2022-12-01T17:13:09;5.30;99.90
22065;DHT22;11197;53.110;8.468;2022-12-01T17:15:45;5.30;99.90
22065;DHT22;11197;53.110;8.468;2022-12-01T17:18:14;5.20;99.90
22065;DHT22;11197;53.110;8.468;2022-12-01T17:20:41;5.20;99.90
22065;DHT22;11197;53.110;8.468;2022-12-01T17:23:07;5.20;99.90
22065;DHT22;11197;53.110;8.468;2022-12-01T17:25:33;5.20;99.90
22065;DHT22;11197;53.110;8.468;2022-12-01T17:27:59;5.20;99.90
22065;DHT22;11197;53.110;8.468;2022-12-01T17:30:25;5.20;99.90
22065;DHT22;11197;53.110;8.468;2022-12-01T17:32:52;5.20;99.90
22065;DHT22;11197;53.110;8.468;2022-12-01T17:35:18;5.10;99.90
22065;DHT22;11197;53.110;8.468;2022-12-01T17:37:44;5.10;99.90
22065;DHT22;11197;53.110;8.468;2022-12-01T17:40:11;5.20;99.90
22065;DHT22;11197;53.110;8.468;2022-12-01T17:42:41;5.20;99.90
22065;DHT22;11197;53.110;8.468;2022-12-01T17:45:08;5.10;99.90
22065;DHT22;11197;53.110;8.468;2022-12-01T17:47:34;5.10;99.90
22065;DHT22;11197;53.110;8.468;2022-12-01T17:50:02;5.10;99.90
22065;DHT22;11197;53.110;8.468;2022-12-01T17:52:29;5.10;99.90
22065;DHT22;11197;53.110;8.468;2022-12-01T17:54:55;5.10;99.90
22065;DHT22;11197;53.110;8.468;2022-12-01T17:57:21;5.10;99.90
22065;DHT22;11197;53.110;8.468;2022-12-01T17:59:47;5.00;99.90
22065;DHT22;11197;53.110;8.468;2022-12-01T18:02:24;5.00;99.90
22065;DHT22;11197;53.110;8.468;2022-12-01T18:04:50;5.00;99.90
22065;DHT22;11197;53.110;8.468;2022-12-01T18:07:16;5.00;99.90
22065;DHT22;11197;53.110;8.468;2022-12-01T18:09:42;4.90;99.90
22065;DHT22;11197;53.110;8.468;2022-12-01T18:12:08;4.90;99.90
22065;DHT22;11197;53.110;8.468;2022-12-01T18:14:34;4.80;99.90
22065;DHT22;11197;53.110;8.468;2022-12-01T18:17:03;4.90;99.90
22065;DHT22;11197;53.110;8.468;2022-12-01T18:19:29;4.80;99.90
22065;DHT22;11197;53.110;8.468;2022-12-01T18:21:55;4.80;99.90
22065;DHT22;11197;53.110;8.468;2022-12-01T18:24:22;4.80;99.90
22065;DHT22;11197;53.110;8.468;2022-12-01T18:26:48;4.70;99.90
22065;DHT22;11197;53.110;8.468;2022-12-01T18:29:18;4.70;99.90
22065;DHT22;11197;53.110;8.468;2022-12-01T18:31:57;4.70;99.90
22065;DHT22;11197;53.110;8.468;2022-12-01T18:34:25;4.70;99.90